createdAt,value
2018-05-09T00:01:41.985Z,6.13
2018-05-09T00:04:09.657Z,6.50
2018-05-09T00:06:37.320Z,6.33
2018-05-09T00:09:04.985Z,6.00
2018-05-09T00:11:32.849Z,6.10
2018-05-09T00:14:00.510Z,6.20
2018-05-09T00:16:28.283Z,6.17
2018-05-09T00:18:56.972Z,6.27
2018-05-09T00:21:25.542Z,6.70
2018-05-09T00:23:53.138Z,6.07
2018-05-09T00:26:20.860Z,6.30
2018-05-09T00:28:50.368Z,6.50
2018-05-09T00:31:18.132Z,6.33
2018-05-09T00:33:45.897Z,6.17
2018-05-09T00:36:13.689Z,6.30
2018-05-09T00:38:41.283Z,6.03
2018-05-09T00:41:08.793Z,6.43
2018-05-09T00:43:37.465Z,6.77
2018-05-09T00:46:05.532Z,6.50
2018-05-09T00:48:33.292Z,6.47
2018-05-09T00:51:00.901Z,5.87
2018-05-09T00:53:28.829Z,6.30
2018-05-09T00:55:57.200Z,6.13
2018-05-09T00:58:24.857Z,6.60
2018-05-09T01:00:52.628Z,6.67
2018-05-09T01:03:20.204Z,6.63
2018-05-09T01:05:48.581Z,6.60
2018-05-09T01:08:16.424Z,6.73
2018-05-09T01:10:44.097Z,6.90
2018-05-09T01:13:11.669Z,6.73
2018-05-09T01:15:40.341Z,6.50
2018-05-09T01:18:08.007Z,6.73
2018-05-09T01:20:36.389Z,6.80
2018-05-09T01:23:04.761Z,7.43
2018-05-09T01:25:33.143Z,6.27
2018-05-09T01:28:01.700Z,6.33
2018-05-09T01:30:29.372Z,6.93
2018-05-09T01:32:56.948Z,6.63
2018-05-09T01:35:25.522Z,6.40
2018-05-09T01:37:53.217Z,6.40
2018-05-09T01:40:20.940Z,6.73
2018-05-09T01:42:49.835Z,6.50
2018-05-09T01:45:17.312Z,6.97
2018-05-09T01:47:45.772Z,6.07
2018-05-09T01:50:14.808Z,6.70
2018-05-09T01:52:42.932Z,6.07
2018-05-09T01:55:11.962Z,7.07
2018-05-09T01:57:39.598Z,6.17
2018-05-09T02:00:08.714Z,6.97
2018-05-09T02:02:36.652Z,6.40
2018-05-09T02:05:04.248Z,7.57
2018-05-09T02:07:32.389Z,6.70
2018-05-09T02:10:00.048Z,7.00
2018-05-09T02:12:27.689Z,6.63
2018-05-09T02:14:55.572Z,7.07
2018-05-09T02:17:23.336Z,6.87
2018-05-09T02:19:50.896Z,7.50
2018-05-09T02:22:18.452Z,7.60
2018-05-09T02:24:46.225Z,6.47
2018-05-09T02:27:13.881Z,7.07
2018-05-09T02:29:41.648Z,6.93
2018-05-09T02:32:09.220Z,7.00
2018-05-09T02:34:37.484Z,6.80
2018-05-09T02:37:05.348Z,6.73
2018-05-09T02:39:33.009Z,6.37
2018-05-09T02:42:00.485Z,6.93
2018-05-09T02:44:29.148Z,6.90
2018-05-09T02:46:56.917Z,6.87
2018-05-09T02:49:25.148Z,6.43
2018-05-09T02:51:52.753Z,6.67
2018-05-09T02:54:20.516Z,6.63
2018-05-09T02:56:48.101Z,7.07
2018-05-09T02:59:16.489Z,7.30
2018-05-09T03:01:44.081Z,5.80
2018-05-09T03:04:11.976Z,6.83
2018-05-09T03:06:39.585Z,6.70
2018-05-09T03:09:07.164Z,5.93
2018-05-09T03:11:35.164Z,6.30
2018-05-09T03:14:02.674Z,6.10
2018-05-09T03:16:30.279Z,6.27
2018-05-09T03:18:57.853Z,6.30
2018-05-09T03:21:26.732Z,6.17
2018-05-09T03:23:54.396Z,6.40
2018-05-09T03:26:25.724Z,6.60
2018-05-09T03:28:53.413Z,7.00
2018-05-09T03:31:21.783Z,7.17
2018-05-09T03:33:49.445Z,6.80
2018-05-09T03:36:17.820Z,6.50
2018-05-09T03:38:45.380Z,7.03
2018-05-09T03:41:12.848Z,6.67
2018-05-09T03:43:41.417Z,6.60
2018-05-09T03:46:09.125Z,7.23
2018-05-09T03:48:36.778Z,7.07
2018-05-09T03:51:04.399Z,6.87
2018-05-09T03:53:33.115Z,7.00
2018-05-09T03:56:01.573Z,7.47
2018-05-09T03:58:29.132Z,7.37
2018-05-09T04:00:56.864Z,8.10
2018-05-09T04:03:36.332Z,7.20
2018-05-09T04:06:15.982Z,7.03
2018-05-09T04:08:55.616Z,7.20
2018-05-09T04:11:23.311Z,7.63
2018-05-09T04:13:51.760Z,6.87
2018-05-09T04:16:19.529Z,7.57
2018-05-09T04:18:47.388Z,7.33
2018-05-09T04:21:15.257Z,7.40
2018-05-09T04:23:42.756Z,7.93
2018-05-09T04:26:10.313Z,8.30
2018-05-09T04:28:38.032Z,8.53
2018-05-09T04:31:05.702Z,9.27
2018-05-09T04:33:34.189Z,8.70
2018-05-09T04:36:03.368Z,8.43
2018-05-09T04:38:30.932Z,8.83
2018-05-09T04:41:00.132Z,8.60
2018-05-09T04:43:28.105Z,7.40
2018-05-09T04:45:56.478Z,7.67
2018-05-09T04:48:24.032Z,7.93
2018-05-09T04:50:51.620Z,7.67
2018-05-09T04:53:20.177Z,7.47
2018-05-09T04:55:47.936Z,8.33
2018-05-09T04:58:15.800Z,7.77
2018-05-09T05:00:43.389Z,8.47
2018-05-09T05:03:11.723Z,7.53
2018-05-09T05:05:39.246Z,7.60
2018-05-09T05:08:07.269Z,7.80
2018-05-09T05:10:34.845Z,7.43
2018-05-09T05:13:03.080Z,7.40
2018-05-09T05:15:30.771Z,6.77
2018-05-09T05:17:58.772Z,6.77
2018-05-09T05:20:26.528Z,6.77
2018-05-09T05:22:54.574Z,7.53
2018-05-09T05:25:22.232Z,8.10
2018-05-09T05:27:49.788Z,6.93
2018-05-09T05:30:17.460Z,8.50
2018-05-09T05:32:45.271Z,7.43
2018-05-09T05:35:13.601Z,8.20
2018-05-09T05:37:41.192Z,7.53
2018-05-09T05:40:08.660Z,7.47
2018-05-09T05:42:36.377Z,7.80
2018-05-09T05:45:04.228Z,6.77
2018-05-09T05:47:32.724Z,7.03
2018-05-09T05:50:00.276Z,6.90
2018-05-09T05:52:29.245Z,7.23
2018-05-09T05:54:57.344Z,6.10
2018-05-09T05:57:25.014Z,6.07
2018-05-09T05:59:53.384Z,7.30
2018-05-09T06:02:22.585Z,7.83
2018-05-09T06:04:50.118Z,5.40
2018-05-09T06:07:17.584Z,6.10
2018-05-09T06:09:45.052Z,7.40
2018-05-09T06:12:12.638Z,7.40
2018-05-09T06:14:40.874Z,8.17
2018-05-09T06:17:08.433Z,7.40
2018-05-09T06:19:36.724Z,8.23
2018-05-09T06:22:04.209Z,6.57
2018-05-09T06:24:32.456Z,6.47
2018-05-09T06:27:00.094Z,7.93
2018-05-09T06:29:27.571Z,7.27
2018-05-09T06:31:55.089Z,7.30
2018-05-09T06:34:22.556Z,6.93
2018-05-09T06:36:50.023Z,7.23
2018-05-09T06:39:17.557Z,7.20
2018-05-09T06:41:45.146Z,7.13
2018-05-09T06:44:12.829Z,7.70
2018-05-09T06:46:40.389Z,6.93
2018-05-09T06:49:07.857Z,7.00
2018-05-09T06:51:36.320Z,6.20
2018-05-09T06:54:03.818Z,6.10
2018-05-09T06:56:31.342Z,5.73
2018-05-09T06:58:59.305Z,6.10
2018-05-09T07:01:26.777Z,5.53
2018-05-09T07:03:55.044Z,5.50
2018-05-09T07:06:23.632Z,5.30
2018-05-09T07:08:51.133Z,5.33
2018-05-09T07:11:18.598Z,5.33
2018-05-09T07:13:46.070Z,5.10
2018-05-09T07:16:14.178Z,4.83
2018-05-09T07:18:42.140Z,4.63
2018-05-09T07:21:10.388Z,4.23
2018-05-09T07:23:37.968Z,5.70
2018-05-09T07:26:05.450Z,9.87
2018-05-09T07:28:32.912Z,4.83
2018-05-09T07:31:00.537Z,4.87
2018-05-09T07:33:28.176Z,4.17
2018-05-09T07:35:55.680Z,5.20
2018-05-09T07:38:23.925Z,4.47
2018-05-09T07:40:51.766Z,4.63
2018-05-09T07:43:19.233Z,4.17
2018-05-09T07:45:46.917Z,4.30
2018-05-09T07:48:14.397Z,4.77
2018-05-09T07:50:42.960Z,4.27
2018-05-09T07:53:10.428Z,4.40
2018-05-09T07:55:38.729Z,4.90
2018-05-09T07:58:06.473Z,4.63
2018-05-09T08:00:34.767Z,4.70
2018-05-09T08:03:03.030Z,5.00
2018-05-09T08:05:31.308Z,4.50
2018-05-09T08:07:59.579Z,6.20
2018-05-09T08:10:27.815Z,4.50
2018-05-09T08:12:55.467Z,4.90
2018-05-09T08:15:22.847Z,5.07
2018-05-09T08:17:50.499Z,4.20
2018-05-09T08:20:18.897Z,4.30
2018-05-09T08:22:46.373Z,4.40
2018-05-09T08:25:14.749Z,4.10
2018-05-09T08:27:42.216Z,5.10
2018-05-09T08:30:09.688Z,3.93
2018-05-09T08:32:37.367Z,3.93
2018-05-09T08:35:04.833Z,4.60
2018-05-09T08:37:32.325Z,4.60
2018-05-09T08:40:01.221Z,4.33
2018-05-09T08:42:29.953Z,3.83
2018-05-09T08:44:57.505Z,4.90
2018-05-09T08:47:25.116Z,4.77
2018-05-09T08:49:52.775Z,4.00
2018-05-09T08:52:20.277Z,4.33
2018-05-09T08:54:47.745Z,4.23
2018-05-09T08:57:15.258Z,4.47
2018-05-09T08:59:43.868Z,4.33
2018-05-09T09:02:11.351Z,4.70
2018-05-09T09:04:38.902Z,4.17
2018-05-09T09:07:06.515Z,4.37
2018-05-09T09:09:34.073Z,5.07
2018-05-09T09:12:01.529Z,4.57
2018-05-09T09:14:29.093Z,4.97
2018-05-09T09:16:57.329Z,5.17
2018-05-09T09:19:25.073Z,4.87
2018-05-09T09:21:52.791Z,4.73
2018-05-09T09:24:20.253Z,4.93
2018-05-09T09:26:48.757Z,4.80
2018-05-09T09:29:16.261Z,4.23
2018-05-09T09:31:43.711Z,4.40
2018-05-09T09:34:11.264Z,4.33
2018-05-09T09:36:38.764Z,4.50
2018-05-09T09:39:07.046Z,4.70
2018-05-09T09:41:36.535Z,4.30
2018-05-09T09:44:04.709Z,4.47
2018-05-09T09:46:32.268Z,4.70
2018-05-09T09:48:59.740Z,4.50
2018-05-09T09:51:28.100Z,4.80
2018-05-09T09:53:55.564Z,4.43
2018-05-09T09:56:23.794Z,4.33
2018-05-09T09:58:51.591Z,4.13
2018-05-09T10:01:19.169Z,4.53
2018-05-09T10:03:47.437Z,4.03
2018-05-09T10:06:15.049Z,4.20
2018-05-09T10:08:42.561Z,4.57
2018-05-09T10:11:10.876Z,4.13
2018-05-09T10:13:38.343Z,4.43
2018-05-09T10:16:05.814Z,3.80
2018-05-09T10:18:33.448Z,4.50
2018-05-09T10:21:01.540Z,3.70
2018-05-09T10:23:29.848Z,4.47
2018-05-09T10:25:57.422Z,4.50
2018-05-09T10:28:25.890Z,4.17
2018-05-09T10:30:53.480Z,4.20
2018-05-09T10:33:21.013Z,3.93
2018-05-09T10:35:48.552Z,4.60
2018-05-09T10:38:16.030Z,4.80
2018-05-09T10:40:44.309Z,4.23
2018-05-09T10:43:12.781Z,4.67
2018-05-09T10:45:40.280Z,4.60
2018-05-09T10:48:07.816Z,4.57
2018-05-09T10:50:36.081Z,4.37
2018-05-09T10:53:04.453Z,4.20
2018-05-09T10:55:31.981Z,3.90
2018-05-09T10:57:59.447Z,4.00
2018-05-09T11:00:26.972Z,4.00
2018-05-09T11:02:54.432Z,4.40
2018-05-09T11:05:21.937Z,4.10
2018-05-09T11:07:49.417Z,4.30
2018-05-09T11:10:17.677Z,4.37
2018-05-09T11:12:46.457Z,4.10
2018-05-09T11:15:13.966Z,4.17
2018-05-09T11:17:41.448Z,4.67
2018-05-09T11:20:09.309Z,4.10
2018-05-09T11:22:36.796Z,4.40
2018-05-09T11:25:04.354Z,4.87
2018-05-09T11:27:32.014Z,4.70
2018-05-09T11:29:59.572Z,5.20
2018-05-09T11:32:27.141Z,4.93
2018-05-09T11:34:55.456Z,4.40
2018-05-09T11:37:22.964Z,4.90
2018-05-09T11:39:50.430Z,4.60
2018-05-09T11:42:18.188Z,4.93
2018-05-09T11:44:45.747Z,5.10
2018-05-09T11:47:13.355Z,5.20
2018-05-09T11:49:40.877Z,5.97
2018-05-09T11:52:09.151Z,5.37
2018-05-09T11:54:37.524Z,5.97
2018-05-09T11:57:05.764Z,5.00
2018-05-09T11:59:33.307Z,5.80
2018-05-09T12:02:00.820Z,5.13
2018-05-09T12:04:29.088Z,5.23
2018-05-09T12:06:56.852Z,4.87
2018-05-09T12:09:24.414Z,4.30
2018-05-09T12:11:51.971Z,4.80
2018-05-09T12:14:19.728Z,4.80
2018-05-09T12:16:47.193Z,4.83
2018-05-09T12:19:15.017Z,4.97
2018-05-09T12:21:42.525Z,4.93
2018-05-09T12:24:10.802Z,5.17
2018-05-09T12:26:39.134Z,5.20
2018-05-09T12:29:06.629Z,4.77
2018-05-09T12:31:34.865Z,4.37
2018-05-09T12:34:03.381Z,4.27
2018-05-09T12:36:30.869Z,4.13
2018-05-09T12:38:59.145Z,4.17
2018-05-09T12:41:26.604Z,4.57
2018-05-09T12:43:54.138Z,4.73
2018-05-09T12:46:22.429Z,4.97
2018-05-09T12:48:51.106Z,4.30
2018-05-09T12:51:18.553Z,4.40
2018-05-09T12:53:46.043Z,4.57
2018-05-09T12:56:13.774Z,4.73
2018-05-09T12:58:42.011Z,4.90
2018-05-09T13:01:09.476Z,4.40
2018-05-09T13:03:37.368Z,4.40
2018-05-09T13:06:04.928Z,4.37
2018-05-09T13:08:32.396Z,3.93
2018-05-09T13:11:00.903Z,4.30
2018-05-09T13:13:28.426Z,4.10
2018-05-09T13:15:56.701Z,3.90
2018-05-09T13:18:25.334Z,3.50
2018-05-09T13:20:52.810Z,4.20
2018-05-09T13:23:21.051Z,3.77
2018-05-09T13:25:48.833Z,4.10
2018-05-09T13:28:17.061Z,4.20
2018-05-09T13:30:45.433Z,4.10
2018-05-09T13:33:13.093Z,3.97
2018-05-09T13:35:41.473Z,3.97
2018-05-09T13:38:09.436Z,4.10
2018-05-09T13:40:37.676Z,4.03
2018-05-09T13:43:05.145Z,3.60
2018-05-09T13:45:32.838Z,3.63
2018-05-09T13:48:01.224Z,3.67
2018-05-09T13:50:29.688Z,3.97
2018-05-09T13:52:57.561Z,4.57
2018-05-09T13:55:25.326Z,4.07
2018-05-09T13:57:53.721Z,4.20
2018-05-09T14:00:22.380Z,4.43
2018-05-09T14:02:51.356Z,4.07
2018-05-09T14:05:18.837Z,4.20
2018-05-09T14:07:46.576Z,4.83
2018-05-09T14:10:14.193Z,4.37
2018-05-09T14:12:41.760Z,4.47
2018-05-09T14:15:09.689Z,4.30
2018-05-09T14:17:37.965Z,4.37
2018-05-09T14:20:05.708Z,4.60
2018-05-09T14:22:33.237Z,4.70
2018-05-09T14:25:01.062Z,4.27
2018-05-09T14:27:29.310Z,4.87
2018-05-09T14:29:56.920Z,4.53
2018-05-09T14:32:24.469Z,4.23
2018-05-09T14:34:51.998Z,4.63
2018-05-09T14:37:19.540Z,4.23
2018-05-09T14:39:47.008Z,4.70
2018-05-09T14:42:14.472Z,5.00
2018-05-09T14:44:42.009Z,4.87
2018-05-09T14:47:09.472Z,4.53
2018-05-09T14:49:36.983Z,4.73
2018-05-09T14:52:05.424Z,4.60
2018-05-09T14:54:33.306Z,4.47
2018-05-09T14:57:01.572Z,4.60
2018-05-09T14:59:29.804Z,4.13
2018-05-09T15:01:57.512Z,4.00
2018-05-09T15:04:25.754Z,4.63
2018-05-09T15:06:53.260Z,4.47
2018-05-09T15:09:21.533Z,4.50
2018-05-09T15:11:49.245Z,4.57
2018-05-09T15:14:17.133Z,4.27
2018-05-09T15:16:44.861Z,4.13
2018-05-09T15:19:12.364Z,4.40
2018-05-09T15:21:40.229Z,4.30
2018-05-09T15:24:07.692Z,4.80
2018-05-09T15:26:35.929Z,4.43
2018-05-09T15:29:03.924Z,4.97
2018-05-09T15:31:31.501Z,5.17
2018-05-09T15:33:59.821Z,4.70
2018-05-09T15:36:27.425Z,4.73
2018-05-09T15:38:54.998Z,4.67
2018-05-09T15:41:22.503Z,4.40
2018-05-09T15:43:50.200Z,4.80
2018-05-09T15:46:17.760Z,5.00
2018-05-09T15:48:45.434Z,4.67
2018-05-09T15:51:13.904Z,4.80
2018-05-09T15:53:41.373Z,5.00
2018-05-09T15:56:10.054Z,4.57
2018-05-09T15:58:38.434Z,4.60
2018-05-09T16:01:06.914Z,5.10
2018-05-09T16:03:35.702Z,4.47
2018-05-09T16:06:03.932Z,4.20
2018-05-09T16:08:31.464Z,4.60
2018-05-09T16:10:59.094Z,4.60
2018-05-09T16:13:27.363Z,4.37
2018-05-09T16:15:55.229Z,5.23
2018-05-09T16:18:23.342Z,4.20
2018-05-09T16:20:51.069Z,4.23
2018-05-09T16:23:19.141Z,4.67
2018-05-09T16:25:47.114Z,4.33
2018-05-09T16:28:14.668Z,4.47
2018-05-09T16:30:42.193Z,4.80
2018-05-09T16:33:09.821Z,5.07
2018-05-09T16:35:37.453Z,5.00
2018-05-09T16:38:05.748Z,4.97
2018-05-09T16:40:34.105Z,4.87
2018-05-09T16:43:01.977Z,4.00
2018-05-09T16:45:30.453Z,4.73
2018-05-09T16:47:58.733Z,4.53
2018-05-09T16:50:26.997Z,4.37
2018-05-09T16:52:54.456Z,4.50
2018-05-09T16:55:23.975Z,4.60
2018-05-09T16:57:52.445Z,5.07
2018-05-09T17:00:20.690Z,4.80
2018-05-09T17:02:48.313Z,4.53
2018-05-09T17:05:16.009Z,4.33
2018-05-09T17:07:43.744Z,4.47
2018-05-09T17:10:11.207Z,4.07
2018-05-09T17:12:38.689Z,3.90
2018-05-09T17:15:06.589Z,3.80
2018-05-09T17:17:34.348Z,4.47
2018-05-09T17:20:02.126Z,4.60
2018-05-09T17:22:33.357Z,4.50
2018-05-09T17:25:01.698Z,4.50
2018-05-09T17:27:29.763Z,4.80
2018-05-09T17:29:57.976Z,4.90
2018-05-09T17:32:26.194Z,4.10
2018-05-09T17:34:53.652Z,4.63
2018-05-09T17:37:21.116Z,4.70
2018-05-09T17:39:48.841Z,4.73
2018-05-09T17:42:17.208Z,5.23
2018-05-09T17:44:44.772Z,4.70
2018-05-09T17:47:12.332Z,4.13
2018-05-09T17:49:40.676Z,4.30
2018-05-09T17:52:08.163Z,5.13
2018-05-09T17:54:35.784Z,4.80
2018-05-09T17:57:03.247Z,4.57
2018-05-09T17:59:30.841Z,4.90
2018-05-09T18:01:58.506Z,4.97
2018-05-09T18:04:26.827Z,5.00
2018-05-09T18:06:54.546Z,4.67
2018-05-09T18:09:23.228Z,4.97
2018-05-09T18:11:50.891Z,4.83
2018-05-09T18:14:18.472Z,4.97
2018-05-09T18:16:46.835Z,5.10
2018-05-09T18:19:15.076Z,5.03
2018-05-09T18:21:42.551Z,5.00
2018-05-09T18:24:10.333Z,5.30
2018-05-09T18:26:38.618Z,5.30
2018-05-09T18:29:06.815Z,5.73
2018-05-09T18:31:34.340Z,5.47
2018-05-09T18:34:02.613Z,5.37
2018-05-09T18:36:30.904Z,5.83
2018-05-09T18:38:59.138Z,5.23
2018-05-09T18:41:26.613Z,5.60
2018-05-09T18:43:55.192Z,5.50
2018-05-09T18:46:22.852Z,5.10
2018-05-09T18:48:50.353Z,5.90
2018-05-09T18:51:17.875Z,5.90
2018-05-09T18:53:45.431Z,5.60
2018-05-09T18:56:13.206Z,6.20
2018-05-09T18:58:40.686Z,5.70
2018-05-09T19:01:08.164Z,6.47
2018-05-09T19:03:35.989Z,6.90
2018-05-09T19:06:04.261Z,7.03
2018-05-09T19:08:32.498Z,6.90
2018-05-09T19:11:00.192Z,6.37
2018-05-09T19:13:27.954Z,6.97
2018-05-09T19:15:55.526Z,7.00
2018-05-09T19:18:23.759Z,6.87
2018-05-09T19:20:51.328Z,6.60
2018-05-09T19:23:18.788Z,7.07
2018-05-09T19:25:46.256Z,6.80
2018-05-09T19:28:14.026Z,6.57
2018-05-09T19:30:41.772Z,6.90
2018-05-09T19:33:09.264Z,6.57
2018-05-09T19:35:37.633Z,6.97
2018-05-09T19:38:06.128Z,6.20
2018-05-09T19:40:34.356Z,7.07
2018-05-09T19:43:01.851Z,6.77
2018-05-09T19:45:30.238Z,6.77
2018-05-09T19:47:58.496Z,7.13
2018-05-09T19:50:26.086Z,6.80
2018-05-09T19:52:53.554Z,7.30
2018-05-09T19:55:21.277Z,7.00
2018-05-09T19:57:49.516Z,8.00
2018-05-09T20:00:17.006Z,8.00
2018-05-09T20:02:44.955Z,8.23
2018-05-09T20:05:13.148Z,7.90
2018-05-09T20:07:41.013Z,8.80
2018-05-09T20:10:08.577Z,8.57
2018-05-09T20:12:36.133Z,7.43
2018-05-09T20:15:03.794Z,7.93
2018-05-09T20:17:31.353Z,7.67
2018-05-09T20:19:58.912Z,8.03
2018-05-09T20:22:27.181Z,8.37
2018-05-09T20:24:54.694Z,8.43
2018-05-09T20:27:22.204Z,7.90
2018-05-09T20:29:50.679Z,7.77
2018-05-09T20:32:30.320Z,7.60
2018-05-09T20:34:58.092Z,7.13
2018-05-09T20:37:25.612Z,7.13
2018-05-09T20:39:53.840Z,7.20
2018-05-09T20:42:22.310Z,7.90
2018-05-09T20:44:50.675Z,7.47
2018-05-09T20:47:18.648Z,7.87
2018-05-09T20:49:46.784Z,7.97
2018-05-09T20:52:14.246Z,8.73
2018-05-09T20:54:42.761Z,8.30
2018-05-09T20:57:10.229Z,8.37
2018-05-09T20:59:38.489Z,8.77
2018-05-09T21:02:06.264Z,8.93
2018-05-09T21:04:34.522Z,8.27
2018-05-09T21:07:02.016Z,8.07
2018-05-09T21:09:29.557Z,8.47
2018-05-09T21:12:09.315Z,9.00
2018-05-09T21:14:37.602Z,8.37
2018-05-09T21:17:05.957Z,9.07
2018-05-09T21:19:35.040Z,9.20
2018-05-09T21:22:02.582Z,8.70
2018-05-09T21:24:31.769Z,8.97
2018-05-09T21:26:59.570Z,9.07
2018-05-09T21:29:27.851Z,9.30
2018-05-09T21:31:56.145Z,8.43
2018-05-09T21:34:23.752Z,9.30
2018-05-09T21:36:52.080Z,9.07
2018-05-09T21:39:19.622Z,9.60
2018-05-09T21:41:47.902Z,9.33
2018-05-09T21:44:16.368Z,10.00
2018-05-09T21:46:43.859Z,9.43
2018-05-09T21:49:11.332Z,9.67
2018-05-09T21:51:38.906Z,10.10
2018-05-09T21:54:06.409Z,10.17
2018-05-09T21:56:34.647Z,9.97
2018-05-09T21:59:02.957Z,10.07
2018-05-09T22:01:31.226Z,9.43
2018-05-09T22:03:58.736Z,9.83
2018-05-09T22:06:26.255Z,9.07
2018-05-09T22:08:54.673Z,9.17
2018-05-09T22:11:22.181Z,9.87
2018-05-09T22:13:49.745Z,10.07
2018-05-09T22:16:18.096Z,9.70
2018-05-09T22:18:45.564Z,9.83
2018-05-09T22:21:13.241Z,9.63
2018-05-09T22:23:41.862Z,9.03
2018-05-09T22:26:09.377Z,9.17
2018-05-09T22:28:37.147Z,9.13
2018-05-09T22:31:05.420Z,9.50
2018-05-09T22:33:33.754Z,9.20
2018-05-09T22:36:01.256Z,9.40
2018-05-09T22:38:29.492Z,8.97
2018-05-09T22:40:57.024Z,9.23
2018-05-09T22:43:24.749Z,9.47
2018-05-09T22:45:52.221Z,9.03
2018-05-09T22:48:20.480Z,9.70
2018-05-09T22:50:48.305Z,8.97
2018-05-09T22:53:15.805Z,9.20
2018-05-09T22:55:43.668Z,9.20
2018-05-09T22:58:11.731Z,9.47
2018-05-09T23:00:39.296Z,9.23
2018-05-09T23:03:06.860Z,10.70
2018-05-09T23:05:34.925Z,10.00
2018-05-09T23:08:02.488Z,11.23
2018-05-09T23:10:30.040Z,9.93
2018-05-09T23:12:57.807Z,11.23
2018-05-09T23:15:26.092Z,10.43
2018-05-09T23:17:54.333Z,11.73
2018-05-09T23:20:21.804Z,11.83
2018-05-09T23:22:49.353Z,12.67
2018-05-09T23:25:17.025Z,13.47
2018-05-09T23:27:44.794Z,12.50
2018-05-09T23:30:12.338Z,13.50
2018-05-09T23:32:39.816Z,12.40
2018-05-09T23:35:07.679Z,11.97
2018-05-09T23:37:35.247Z,12.27
2018-05-09T23:40:03.492Z,11.30
2018-05-09T23:42:31.114Z,10.83
2018-05-09T23:44:58.593Z,10.53
2018-05-09T23:47:26.101Z,9.60
2018-05-09T23:49:54.405Z,9.60
2018-05-09T23:52:21.881Z,10.43
2018-05-09T23:54:49.349Z,10.33
2018-05-09T23:57:17.144Z,10.07
2018-05-09T23:59:44.624Z,10.37
